createdAt,value
2022-07-26T00:01:48.747Z,3.70
2022-07-26T00:07:09.735Z,3.90
2022-07-26T00:09:46.356Z,3.60
2022-07-26T00:12:19.828Z,4.40
2022-07-26T00:14:51.937Z,3.30
2022-07-26T00:17:23.562Z,3.70
2022-07-26T00:19:55.231Z,3.80
2022-07-26T00:22:35.707Z,3.70
2022-07-26T00:25:09.990Z,4.10
2022-07-26T00:27:41.734Z,3.30
2022-07-26T00:30:14.915Z,3.90
2022-07-26T00:32:46.903Z,3.80
2022-07-26T00:35:18.604Z,3.80
2022-07-26T00:37:50.556Z,3.70
2022-07-26T00:40:22.714Z,3.90
2022-07-26T00:42:54.404Z,3.90
2022-07-26T00:45:26.143Z,3.90
2022-07-26T00:47:57.894Z,3.80
2022-07-26T00:50:29.610Z,3.80
2022-07-26T00:53:01.276Z,4.00
2022-07-26T00:55:33.293Z,3.80
2022-07-26T00:58:06.498Z,3.60
2022-07-26T01:00:38.230Z,4.00
2022-07-26T01:03:10.099Z,3.60
2022-07-26T01:05:41.712Z,3.20
2022-07-26T01:08:13.321Z,3.50
2022-07-26T01:10:44.924Z,4.00
2022-07-26T01:13:22.138Z,3.60
2022-07-26T01:15:54.083Z,4.30
2022-07-26T01:18:26.106Z,4.00
2022-07-26T01:21:00.358Z,4.10
2022-07-26T01:23:32.218Z,3.70
2022-07-26T01:26:03.859Z,3.60
2022-07-26T01:28:39.966Z,4.00
2022-07-26T01:31:11.654Z,3.80
2022-07-26T01:33:43.900Z,3.90
2022-07-26T01:36:15.408Z,4.20
2022-07-26T01:38:47.105Z,3.60
2022-07-26T01:41:31.037Z,3.70
2022-07-26T01:44:10.287Z,3.60
2022-07-26T01:46:42.251Z,3.90
2022-07-26T01:49:14.143Z,3.80
2022-07-26T01:51:46.041Z,4.20
2022-07-26T01:54:22.259Z,3.90
2022-07-26T01:56:54.210Z,3.90
2022-07-26T01:59:25.707Z,3.80
2022-07-26T02:01:57.362Z,3.80
2022-07-26T02:04:43.000Z,3.70
2022-07-26T02:07:14.607Z,4.00
2022-07-26T02:09:46.144Z,3.80
2022-07-26T02:12:19.325Z,3.60
2022-07-26T02:14:52.342Z,3.40
2022-07-26T02:17:23.942Z,4.00
2022-07-26T02:19:55.492Z,3.70
2022-07-26T02:22:27.137Z,3.90
2022-07-26T02:25:04.454Z,3.80
2022-07-26T02:27:36.597Z,3.60
2022-07-26T02:30:09.935Z,3.80
2022-07-26T02:32:43.733Z,4.00
2022-07-26T02:35:15.496Z,4.00
2022-07-26T02:37:47.091Z,3.70
2022-07-26T02:40:19.525Z,3.90
2022-07-26T02:42:51.497Z,4.60
2022-07-26T02:45:23.268Z,3.60
2022-07-26T02:47:56.912Z,3.90
2022-07-26T02:50:29.531Z,3.70
2022-07-26T02:53:01.072Z,4.50
2022-07-26T02:55:32.918Z,3.80
2022-07-26T02:58:04.480Z,3.50
2022-07-26T03:00:36.437Z,3.80
2022-07-26T03:03:07.955Z,3.90
2022-07-26T03:05:39.561Z,4.00
2022-07-26T03:08:11.425Z,3.80
2022-07-26T03:10:43.052Z,4.00
2022-07-26T03:13:15.239Z,4.00
2022-07-26T03:15:47.255Z,4.30
2022-07-26T03:18:18.781Z,4.00
2022-07-26T03:20:50.463Z,4.40
2022-07-26T03:23:22.217Z,4.30
2022-07-26T03:25:53.887Z,4.40
2022-07-26T03:28:25.366Z,4.20
2022-07-26T03:30:57.072Z,4.30
2022-07-26T03:33:28.635Z,3.70
2022-07-26T03:36:00.203Z,4.20
2022-07-26T03:38:32.392Z,4.00
2022-07-26T03:41:04.290Z,4.50
2022-07-26T03:43:36.352Z,4.10
2022-07-26T03:46:08.446Z,3.80
2022-07-26T03:48:40.114Z,3.90
2022-07-26T03:51:11.805Z,4.00
2022-07-26T03:53:43.482Z,4.10
2022-07-26T03:56:31.770Z,4.20
2022-07-26T03:59:05.517Z,4.30
2022-07-26T04:01:41.671Z,3.60
2022-07-26T04:04:15.183Z,3.80
2022-07-26T04:06:48.096Z,3.90
2022-07-26T04:09:19.861Z,3.70
2022-07-26T04:11:51.458Z,3.50
2022-07-26T04:14:23.054Z,3.50
2022-07-26T04:16:55.661Z,3.80
2022-07-26T04:19:27.274Z,3.90
2022-07-26T04:21:58.862Z,4.40
2022-07-26T04:24:30.498Z,3.90
2022-07-26T04:27:02.030Z,3.50
2022-07-26T04:29:33.646Z,3.20
2022-07-26T04:32:05.535Z,3.60
2022-07-26T04:34:37.267Z,3.20
2022-07-26T04:37:08.865Z,3.10
2022-07-26T04:39:40.401Z,3.60
2022-07-26T04:42:12.119Z,3.30
2022-07-26T04:44:43.913Z,3.50
2022-07-26T04:47:15.469Z,3.70
2022-07-26T04:49:46.920Z,3.20
2022-07-26T04:52:18.427Z,3.50
2022-07-26T04:54:49.978Z,3.20
2022-07-26T04:57:22.118Z,3.10
2022-07-26T05:00:03.677Z,3.20
2022-07-26T05:02:45.415Z,3.20
2022-07-26T05:05:17.099Z,3.60
2022-07-26T05:07:50.512Z,4.00
2022-07-26T05:10:24.115Z,3.60
2022-07-26T05:12:55.628Z,3.90
2022-07-26T05:15:34.927Z,3.90
2022-07-26T05:18:10.330Z,4.10
2022-07-26T05:20:42.404Z,4.10
2022-07-26T05:23:13.935Z,4.10
2022-07-26T05:25:45.514Z,3.90
2022-07-26T05:28:17.242Z,4.50
2022-07-26T05:30:49.108Z,4.50
2022-07-26T05:33:20.696Z,6.10
2022-07-26T05:35:52.280Z,9.90
2022-07-26T05:38:25.697Z,5.90
2022-07-26T05:40:57.253Z,7.10
2022-07-26T05:43:41.112Z,8.40
2022-07-26T05:46:16.064Z,10.50
2022-07-26T05:48:47.707Z,7.60
2022-07-26T05:51:19.433Z,11.00
2022-07-26T05:53:51.669Z,9.20
2022-07-26T05:56:23.349Z,8.10
2022-07-26T05:58:54.856Z,7.80
2022-07-26T06:01:26.294Z,6.50
2022-07-26T06:03:58.142Z,7.00
2022-07-26T06:06:30.158Z,6.20
2022-07-26T06:09:01.763Z,5.80
2022-07-26T06:11:33.365Z,6.20
2022-07-26T06:14:05.026Z,6.00
2022-07-26T06:16:36.628Z,5.60
2022-07-26T06:19:08.300Z,6.30
2022-07-26T06:21:40.134Z,5.70
2022-07-26T06:24:12.226Z,5.50
2022-07-26T06:26:44.603Z,6.10
2022-07-26T06:29:16.290Z,6.00
2022-07-26T06:31:48.063Z,6.00
2022-07-26T06:34:19.945Z,5.60
2022-07-26T06:36:51.574Z,6.30
2022-07-26T06:39:23.160Z,6.50
2022-07-26T06:41:54.678Z,5.60
2022-07-26T06:44:26.629Z,6.40
2022-07-26T06:46:58.187Z,6.70
2022-07-26T06:49:29.938Z,6.10
2022-07-26T06:52:01.474Z,6.40
2022-07-26T06:54:32.991Z,7.10
2022-07-26T06:57:04.797Z,5.70
2022-07-26T06:59:36.386Z,6.30
2022-07-26T07:02:08.231Z,6.90
2022-07-26T07:04:39.978Z,7.40
2022-07-26T07:07:11.483Z,7.30
2022-07-26T07:09:43.835Z,7.30
2022-07-26T07:12:15.695Z,7.20
2022-07-26T07:14:47.397Z,7.10
2022-07-26T07:17:21.508Z,6.90
2022-07-26T07:19:53.091Z,6.80
2022-07-26T07:22:24.676Z,7.80
2022-07-26T07:24:56.298Z,7.70
2022-07-26T07:27:28.154Z,6.80
2022-07-26T07:29:59.837Z,6.80
2022-07-26T07:32:31.570Z,7.40
2022-07-26T07:35:03.254Z,7.70
2022-07-26T07:37:53.753Z,7.40
2022-07-26T07:40:25.723Z,7.40
2022-07-26T07:42:57.542Z,7.10
2022-07-26T07:45:29.124Z,7.50
2022-07-26T07:48:00.799Z,6.90
2022-07-26T07:50:33.175Z,6.90
2022-07-26T07:53:05.724Z,7.80
2022-07-26T07:55:41.532Z,7.10
2022-07-26T07:58:17.263Z,6.80
2022-07-26T08:00:50.806Z,7.40
2022-07-26T08:03:22.992Z,8.70
2022-07-26T08:05:54.832Z,7.50
2022-07-26T08:08:26.496Z,7.30
2022-07-26T08:10:58.134Z,7.50
2022-07-26T08:13:30.907Z,7.10
2022-07-26T08:16:02.948Z,7.70
2022-07-26T08:18:53.399Z,8.00
2022-07-26T08:21:29.220Z,7.50
2022-07-26T08:24:00.982Z,8.50
2022-07-26T08:26:32.579Z,7.80
2022-07-26T08:29:04.360Z,8.10
2022-07-26T08:31:35.956Z,8.90
2022-07-26T08:34:07.585Z,8.30
2022-07-26T08:36:49.639Z,9.40
2022-07-26T08:39:30.984Z,8.80
2022-07-26T08:42:02.861Z,8.50
2022-07-26T08:44:35.164Z,8.90
2022-07-26T08:47:06.924Z,9.90
2022-07-26T08:49:38.621Z,8.70
2022-07-26T08:52:11.617Z,9.60
2022-07-26T08:54:47.086Z,9.60
2022-07-26T08:57:19.280Z,9.60
2022-07-26T09:00:16.144Z,10.30
2022-07-26T09:02:48.954Z,10.00
2022-07-26T09:05:27.793Z,9.70
2022-07-26T09:07:59.822Z,9.80
2022-07-26T09:10:39.230Z,9.90
2022-07-26T09:13:11.194Z,9.80
2022-07-26T09:15:42.867Z,9.70
2022-07-26T09:18:29.583Z,9.70
2022-07-26T09:21:02.392Z,9.40
2022-07-26T09:23:41.365Z,9.60
2022-07-26T09:26:13.072Z,9.00
2022-07-26T09:28:44.943Z,10.00
2022-07-26T09:31:24.990Z,8.90
2022-07-26T09:33:56.645Z,8.90
2022-07-26T09:36:29.084Z,9.50
2022-07-26T09:39:03.818Z,9.20
2022-07-26T09:41:37.581Z,9.30
2022-07-26T09:44:23.490Z,7.50
2022-07-26T09:46:57.559Z,10.00
2022-07-26T09:49:40.862Z,10.30
2022-07-26T09:52:19.283Z,9.50
2022-07-26T09:54:51.416Z,10.60
2022-07-26T09:57:23.370Z,9.60
2022-07-26T09:59:55.536Z,10.40
2022-07-26T10:02:27.189Z,10.00
2022-07-26T10:04:58.951Z,9.30
2022-07-26T10:07:31.289Z,10.50
2022-07-26T10:10:05.899Z,8.70
2022-07-26T10:12:37.767Z,8.90
2022-07-26T10:15:37.232Z,9.40
2022-07-26T10:18:10.129Z,9.50
2022-07-26T10:20:52.875Z,8.70
2022-07-26T10:23:42.741Z,8.30
2022-07-26T10:26:37.721Z,7.70
2022-07-26T10:29:29.536Z,8.50
2022-07-26T10:32:20.097Z,9.00
2022-07-26T10:34:51.725Z,8.30
2022-07-26T10:37:29.632Z,7.90
2022-07-26T10:40:25.451Z,7.10
2022-07-26T10:43:37.843Z,7.70
2022-07-26T10:46:29.216Z,7.00
2022-07-26T10:49:03.535Z,7.20
2022-07-26T10:51:37.611Z,6.50
2022-07-26T10:54:12.029Z,7.10
2022-07-26T10:56:44.004Z,6.50
2022-07-26T10:59:27.977Z,6.20
2022-07-26T11:02:20.087Z,5.40
2022-07-26T11:04:59.736Z,4.80
2022-07-26T11:07:32.361Z,5.40
2022-07-26T11:10:04.106Z,5.20
2022-07-26T11:12:36.591Z,5.80
2022-07-26T11:15:19.331Z,6.80
2022-07-26T11:17:50.814Z,5.70
2022-07-26T11:20:30.010Z,5.30
2022-07-26T11:23:01.849Z,5.90
2022-07-26T11:25:33.460Z,5.90
2022-07-26T11:28:08.319Z,5.30
2022-07-26T11:30:58.889Z,5.40
2022-07-26T11:33:42.262Z,5.80
2022-07-26T11:36:14.222Z,6.60
2022-07-26T11:38:53.934Z,6.60
2022-07-26T11:41:34.373Z,6.90
2022-07-26T11:46:47.418Z,6.20
2022-07-26T11:49:22.891Z,6.20
2022-07-26T11:51:58.127Z,6.90
2022-07-26T11:54:32.194Z,6.30
2022-07-26T11:57:05.641Z,5.70
2022-07-26T11:59:42.549Z,6.60
2022-07-26T12:02:15.142Z,6.50
2022-07-26T12:04:47.121Z,5.80
2022-07-26T12:07:21.424Z,6.20
2022-07-26T12:09:54.649Z,6.00
2022-07-26T12:12:27.809Z,6.70
2022-07-26T12:15:01.158Z,6.40
2022-07-26T12:17:35.350Z,6.20
2022-07-26T12:20:19.038Z,7.00
2022-07-26T12:23:00.304Z,5.90
2022-07-26T12:25:32.086Z,6.80
2022-07-26T12:28:03.596Z,6.50
2022-07-26T12:30:38.633Z,6.70
2022-07-26T12:33:10.201Z,6.30
2022-07-26T12:35:42.026Z,7.20
2022-07-26T12:38:13.661Z,7.00
2022-07-26T12:40:45.367Z,6.90
2022-07-26T12:43:16.899Z,6.90
2022-07-26T12:45:48.565Z,7.30
2022-07-26T12:48:20.377Z,6.00
2022-07-26T12:50:51.987Z,6.80
2022-07-26T12:53:23.774Z,7.00
2022-07-26T12:55:55.265Z,7.00
2022-07-26T12:58:26.906Z,6.90
2022-07-26T13:00:58.429Z,6.70
2022-07-26T13:03:30.289Z,7.50
2022-07-26T13:06:03.346Z,6.60
2022-07-26T13:08:35.060Z,7.20
2022-07-26T13:11:06.718Z,6.60
2022-07-26T13:13:38.357Z,7.60
2022-07-26T13:16:12.348Z,7.70
2022-07-26T13:18:44.014Z,7.40
2022-07-26T13:21:15.740Z,6.10
2022-07-26T13:23:47.249Z,6.90
2022-07-26T13:26:19.058Z,7.20
2022-07-26T13:28:53.138Z,6.70
2022-07-26T13:31:24.758Z,6.80
2022-07-26T13:33:56.378Z,7.10
2022-07-26T13:36:28.000Z,6.90
2022-07-26T13:38:59.699Z,7.40
2022-07-26T13:41:31.688Z,7.60
2022-07-26T13:44:09.531Z,8.70
2022-07-26T13:46:42.935Z,7.30
2022-07-26T13:49:14.603Z,7.30
2022-07-26T13:51:58.459Z,7.50
2022-07-26T13:54:32.882Z,7.60
2022-07-26T13:57:07.761Z,7.90
2022-07-26T13:59:39.402Z,7.40
2022-07-26T14:02:11.347Z,8.00
2022-07-26T14:04:43.569Z,7.50
2022-07-26T14:07:15.363Z,8.20
2022-07-26T14:09:46.917Z,7.10
2022-07-26T14:12:19.266Z,7.20
2022-07-26T14:14:50.909Z,8.00
2022-07-26T14:17:22.456Z,7.90
2022-07-26T14:19:54.054Z,8.10
2022-07-26T14:22:25.683Z,7.60
2022-07-26T14:24:57.257Z,7.70
2022-07-26T14:27:28.918Z,7.60
2022-07-26T14:30:00.440Z,7.90
2022-07-26T14:32:32.019Z,8.20
2022-07-26T14:35:04.021Z,8.10
2022-07-26T14:37:43.429Z,8.00
2022-07-26T14:40:18.237Z,7.30
2022-07-26T14:42:50.010Z,7.00
2022-07-26T14:45:21.586Z,7.00
2022-07-26T14:47:53.138Z,8.10
2022-07-26T14:50:25.992Z,8.20
2022-07-26T14:52:58.709Z,7.90
2022-07-26T14:55:30.441Z,8.20
2022-07-26T14:58:01.920Z,7.50
2022-07-26T15:00:33.822Z,7.40
2022-07-26T15:03:05.608Z,8.10
2022-07-26T15:05:37.232Z,7.40
2022-07-26T15:08:09.280Z,7.50
2022-07-26T15:10:40.958Z,7.20
2022-07-26T15:13:13.711Z,7.70
2022-07-26T15:15:45.266Z,7.60
2022-07-26T15:18:16.846Z,7.60
2022-07-26T15:20:48.473Z,7.60
2022-07-26T15:23:20.217Z,7.60
2022-07-26T15:25:51.841Z,7.90
2022-07-26T15:28:23.364Z,7.30
2022-07-26T15:30:55.309Z,6.70
2022-07-26T15:33:26.847Z,7.00
2022-07-26T15:35:59.545Z,7.50
2022-07-26T15:38:33.058Z,7.40
2022-07-26T15:41:04.948Z,7.20
2022-07-26T15:43:48.986Z,6.70
2022-07-26T15:46:20.879Z,7.00
2022-07-26T15:48:54.778Z,6.90
2022-07-26T15:51:26.595Z,7.50
2022-07-26T15:53:58.502Z,7.10
2022-07-26T15:56:30.030Z,7.50
2022-07-26T15:59:01.611Z,6.70
2022-07-26T16:01:33.459Z,7.50
2022-07-26T16:04:06.015Z,7.20
2022-07-26T16:06:38.278Z,7.60
2022-07-26T16:09:19.129Z,7.20
2022-07-26T16:11:51.401Z,8.00
2022-07-26T16:14:22.940Z,8.00
2022-07-26T16:16:54.602Z,7.60
2022-07-26T16:19:26.356Z,7.00
2022-07-26T16:21:58.122Z,7.00
2022-07-26T16:24:30.142Z,7.30
2022-07-26T16:27:02.055Z,7.40
2022-07-26T16:29:33.574Z,6.80
2022-07-26T16:32:05.673Z,7.00
2022-07-26T16:34:37.378Z,7.00
2022-07-26T16:37:08.918Z,7.60
2022-07-26T16:39:40.514Z,7.20
2022-07-26T16:42:13.533Z,7.40
2022-07-26T16:44:45.242Z,7.60
2022-07-26T16:47:16.875Z,7.20
2022-07-26T16:49:48.467Z,7.10
2022-07-26T16:52:20.161Z,7.00
2022-07-26T16:54:51.746Z,7.70
2022-07-26T16:57:23.410Z,6.90
2022-07-26T16:59:55.185Z,7.50
2022-07-26T17:02:26.986Z,7.70
2022-07-26T17:04:59.582Z,7.20
2022-07-26T17:07:31.983Z,7.30
2022-07-26T17:10:04.761Z,7.70
2022-07-26T17:12:36.985Z,7.80
2022-07-26T17:15:12.019Z,9.40
2022-07-26T17:17:48.545Z,9.10
2022-07-26T17:20:21.458Z,8.30
2022-07-26T17:22:53.475Z,8.80
2022-07-26T17:25:25.306Z,9.20
2022-07-26T17:27:57.016Z,8.90
2022-07-26T17:30:28.847Z,9.30
2022-07-26T17:33:00.424Z,9.30
2022-07-26T17:35:32.070Z,9.50
2022-07-26T17:38:03.682Z,8.80
2022-07-26T17:40:36.007Z,8.20
2022-07-26T17:43:10.050Z,8.80
2022-07-26T17:45:41.657Z,9.00
2022-07-26T17:48:13.490Z,9.20
2022-07-26T17:50:45.177Z,9.20
2022-07-26T17:53:16.640Z,10.20
2022-07-26T17:55:53.369Z,9.30
2022-07-26T17:58:25.211Z,8.90
2022-07-26T18:00:57.114Z,9.90
2022-07-26T18:03:29.130Z,10.00
2022-07-26T18:06:00.996Z,9.30
2022-07-26T18:08:32.861Z,9.00
2022-07-26T18:11:05.280Z,8.60
2022-07-26T18:13:38.391Z,10.00
2022-07-26T18:16:10.237Z,9.00
2022-07-26T18:18:43.421Z,9.40
2022-07-26T18:21:15.170Z,9.10
2022-07-26T18:24:14.245Z,10.00
2022-07-26T18:26:40.045Z,9.60
2022-07-26T18:29:16.281Z,9.20
2022-07-26T18:31:49.210Z,9.60
2022-07-26T18:34:21.281Z,9.00
2022-07-26T18:36:52.694Z,9.00
2022-07-26T18:39:24.623Z,9.30
2022-07-26T18:42:04.243Z,9.50
2022-07-26T18:44:37.569Z,9.30
2022-07-26T18:47:09.976Z,10.10
2022-07-26T18:49:42.292Z,9.30
2022-07-26T18:52:14.442Z,10.00
2022-07-26T18:54:46.532Z,9.60
2022-07-26T18:57:18.027Z,10.00
2022-07-26T18:59:50.242Z,9.50
2022-07-26T19:02:21.943Z,10.40
2022-07-26T19:04:53.793Z,11.00
2022-07-26T19:07:25.652Z,10.50
2022-07-26T19:09:58.723Z,9.30
2022-07-26T19:12:31.020Z,11.30
2022-07-26T19:15:02.842Z,10.00
2022-07-26T19:17:35.180Z,10.60
2022-07-26T19:20:09.100Z,11.20
2022-07-26T19:22:41.020Z,10.60
2022-07-26T19:25:16.574Z,10.50
2022-07-26T19:27:48.439Z,12.30
2022-07-26T19:30:20.065Z,11.80
2022-07-26T19:32:51.788Z,11.60
2022-07-26T19:35:23.520Z,11.50
2022-07-26T19:37:55.497Z,11.90
2022-07-26T19:40:27.276Z,11.90
2022-07-26T19:42:58.982Z,13.10
2022-07-26T19:45:30.588Z,11.80
2022-07-26T19:48:02.739Z,11.80
2022-07-26T19:50:34.633Z,12.00
2022-07-26T19:53:06.128Z,12.40
2022-07-26T19:55:41.259Z,12.00
2022-07-26T19:58:12.792Z,11.00
2022-07-26T20:00:44.337Z,12.30
2022-07-26T20:03:16.053Z,11.00
2022-07-26T20:05:47.725Z,11.40
2022-07-26T20:08:19.267Z,12.50
2022-07-26T20:10:51.106Z,12.60
2022-07-26T20:13:22.732Z,11.30
2022-07-26T20:15:54.430Z,11.70
2022-07-26T20:18:28.273Z,12.50
2022-07-26T20:21:00.162Z,11.60
2022-07-26T20:23:31.785Z,10.70
2022-07-26T20:26:03.481Z,11.80
2022-07-26T20:28:35.055Z,10.90
2022-07-26T20:31:06.904Z,11.00
2022-07-26T20:33:38.545Z,13.00
2022-07-26T20:36:10.630Z,12.00
2022-07-26T20:38:42.139Z,11.40
2022-07-26T20:41:13.673Z,12.00
2022-07-26T20:43:45.406Z,11.00
2022-07-26T20:46:17.617Z,11.70
2022-07-26T20:48:49.427Z,11.60
2022-07-26T20:51:21.023Z,11.30
2022-07-26T20:53:52.638Z,11.90
2022-07-26T20:56:24.426Z,11.30
2022-07-26T20:58:56.038Z,11.30
2022-07-26T21:01:27.611Z,10.60
2022-07-26T21:03:59.555Z,10.90
2022-07-26T21:06:33.136Z,11.30
2022-07-26T21:09:09.650Z,11.10
2022-07-26T21:11:41.960Z,10.20
2022-07-26T21:14:13.409Z,9.80
2022-07-26T21:16:44.964Z,9.30
2022-07-26T21:19:16.944Z,9.10
2022-07-26T21:21:48.436Z,9.40
2022-07-26T21:24:20.317Z,8.50
2022-07-26T21:26:51.931Z,9.30
2022-07-26T21:29:23.558Z,9.10
2022-07-26T21:31:55.351Z,9.30
2022-07-26T21:34:27.092Z,8.70
2022-07-26T21:36:58.872Z,8.00
2022-07-26T21:39:30.485Z,8.10
2022-07-26T21:42:01.970Z,8.00
2022-07-26T21:44:33.630Z,9.40
2022-07-26T21:47:05.864Z,9.90
2022-07-26T21:49:37.957Z,10.00
2022-07-26T21:52:09.673Z,8.90
2022-07-26T21:54:41.606Z,10.40
2022-07-26T21:57:13.253Z,10.10
2022-07-26T21:59:44.890Z,9.90
2022-07-26T22:02:19.580Z,9.80
2022-07-26T22:04:53.427Z,10.40
2022-07-26T22:07:24.961Z,8.80
2022-07-26T22:09:56.547Z,9.00
2022-07-26T22:12:28.134Z,8.80
2022-07-26T22:14:59.707Z,9.20
2022-07-26T22:17:31.297Z,11.20
2022-07-26T22:20:04.034Z,12.90
2022-07-26T22:22:35.773Z,12.60
2022-07-26T22:25:07.958Z,10.40
2022-07-26T22:27:39.531Z,11.00
2022-07-26T22:30:12.746Z,10.80
2022-07-26T22:32:44.278Z,11.10
2022-07-26T22:35:15.976Z,11.30
2022-07-26T22:37:47.570Z,11.60
2022-07-26T22:40:19.972Z,11.30
2022-07-26T22:42:52.189Z,12.50
2022-07-26T22:45:24.111Z,11.20
2022-07-26T22:47:56.722Z,10.90
2022-07-26T22:50:28.555Z,11.40
2022-07-26T22:53:00.906Z,12.00
2022-07-26T22:55:32.824Z,11.40
2022-07-26T22:58:04.552Z,10.90
2022-07-26T23:00:36.172Z,11.30
2022-07-26T23:03:14.643Z,10.30
2022-07-26T23:05:52.559Z,8.80
2022-07-26T23:08:45.614Z,10.10
2022-07-26T23:13:45.847Z,10.00
2022-07-26T23:16:17.473Z,9.20
2022-07-26T23:18:49.321Z,7.40
2022-07-26T23:21:20.932Z,7.60
2022-07-26T23:23:52.563Z,7.60
2022-07-26T23:26:24.387Z,8.30
2022-07-26T23:28:56.083Z,9.40
2022-07-26T23:31:27.966Z,9.50
2022-07-26T23:33:59.631Z,9.50
2022-07-26T23:36:31.273Z,8.20
2022-07-26T23:39:03.168Z,7.90
2022-07-26T23:41:34.803Z,8.40
2022-07-26T23:44:06.822Z,7.80
2022-07-26T23:46:38.590Z,8.30
2022-07-26T23:49:10.597Z,8.00
2022-07-26T23:51:42.523Z,8.10
2022-07-26T23:54:14.191Z,7.60
2022-07-26T23:56:46.207Z,7.40
2022-07-26T23:59:17.903Z,6.90
